createdAt,value
2017-11-08T00:02:04.331Z,27.03
2017-11-08T00:04:31.855Z,22.87
2017-11-08T00:07:00.188Z,25.93
2017-11-08T00:09:27.715Z,24.87
2017-11-08T00:11:55.242Z,27.13
2017-11-08T00:14:22.787Z,27.87
2017-11-08T00:16:50.322Z,31.07
2017-11-08T00:19:19.783Z,32.20
2017-11-08T00:21:47.316Z,32.40
2017-11-08T00:24:14.871Z,29.67
2017-11-08T00:26:42.401Z,33.30
2017-11-08T00:29:09.969Z,30.67
2017-11-08T00:31:37.512Z,26.83
2017-11-08T00:34:05.109Z,30.00
2017-11-08T00:36:32.639Z,34.53
2017-11-08T00:39:00.931Z,32.90
2017-11-08T00:41:29.243Z,28.50
2017-11-08T00:43:56.770Z,30.90
2017-11-08T00:46:25.083Z,27.00
2017-11-08T00:48:52.619Z,28.70
2017-11-08T00:51:20.172Z,34.53
2017-11-08T00:53:48.463Z,33.40
2017-11-08T00:56:16.772Z,28.20
2017-11-08T00:58:44.304Z,34.43
2017-11-08T01:01:11.861Z,33.70
2017-11-08T01:03:40.157Z,26.67
2017-11-08T01:06:07.701Z,34.20
2017-11-08T01:08:35.986Z,28.20
2017-11-08T01:11:04.317Z,30.10
2017-11-08T01:13:31.839Z,30.77
2017-11-08T01:15:59.376Z,30.30
2017-11-08T01:18:26.919Z,32.03
2017-11-08T01:20:54.434Z,37.50
2017-11-08T01:23:21.979Z,33.13
2017-11-08T01:25:50.273Z,32.87
2017-11-08T01:28:17.815Z,37.80
2017-11-08T01:30:45.352Z,32.67
2017-11-08T01:33:12.897Z,28.70
2017-11-08T01:35:41.191Z,36.47
2017-11-08T01:38:12.752Z,33.60
2017-11-08T01:40:44.000Z,32.37
2017-11-08T01:43:11.552Z,32.40
2017-11-08T01:45:41.959Z,29.33
2017-11-08T01:48:09.526Z,31.07
2017-11-08T01:50:38.840Z,28.47
2017-11-08T01:53:06.372Z,33.73
2017-11-08T01:55:33.922Z,29.67
2017-11-08T01:58:02.219Z,31.97
2017-11-08T02:00:29.765Z,34.33
2017-11-08T02:02:58.052Z,29.00
2017-11-08T02:05:25.608Z,27.37
2017-11-08T02:07:53.904Z,25.17
2017-11-08T02:10:21.464Z,29.57
2017-11-08T02:12:48.992Z,25.80
2017-11-08T02:15:16.539Z,26.10
2017-11-08T02:17:49.828Z,27.90
2017-11-08T02:20:17.388Z,37.20
2017-11-08T02:22:44.916Z,32.73
2017-11-08T02:25:13.226Z,36.33
2017-11-08T02:27:40.771Z,36.87
2017-11-08T02:30:08.319Z,35.30
2017-11-08T02:32:36.611Z,36.30
2017-11-08T02:35:04.160Z,40.03
2017-11-08T02:37:32.459Z,39.30
2017-11-08T02:40:00.014Z,43.43
2017-11-08T02:42:27.563Z,41.10
2017-11-08T02:44:55.925Z,31.87
2017-11-08T02:47:23.478Z,37.00
2017-11-08T02:49:51.030Z,39.63
2017-11-08T02:52:18.584Z,33.10
2017-11-08T02:54:46.120Z,36.43
2017-11-08T02:57:13.667Z,27.83
2017-11-08T02:59:41.205Z,32.97
2017-11-08T03:02:11.714Z,32.90
2017-11-08T03:04:44.967Z,28.70
2017-11-08T03:07:12.515Z,24.33
2017-11-08T03:09:40.043Z,24.30
2017-11-08T03:12:07.590Z,24.57
2017-11-08T03:14:35.120Z,24.10
2017-11-08T03:17:02.672Z,25.20
2017-11-08T03:19:30.197Z,29.50
2017-11-08T03:21:57.767Z,25.37
2017-11-08T03:24:26.070Z,37.43
2017-11-08T03:26:53.655Z,28.90
2017-11-08T03:29:21.183Z,37.30
2017-11-08T03:31:49.507Z,32.83
2017-11-08T03:34:17.042Z,33.63
2017-11-08T03:36:44.588Z,35.33
2017-11-08T03:39:12.883Z,33.20
2017-11-08T03:41:40.437Z,25.23
2017-11-08T03:44:07.972Z,24.53
2017-11-08T03:46:35.522Z,25.00
2017-11-08T03:49:03.051Z,27.90
2017-11-08T03:51:30.594Z,33.80
2017-11-08T03:53:58.123Z,29.03
2017-11-08T03:56:25.675Z,32.10
2017-11-08T03:58:53.200Z,32.77
2017-11-08T04:01:20.742Z,35.20
2017-11-08T04:03:48.272Z,42.70
2017-11-08T04:06:16.588Z,34.80
2017-11-08T04:08:44.129Z,33.40
2017-11-08T04:11:12.447Z,33.30
2017-11-08T04:13:39.975Z,35.93
2017-11-08T04:16:08.300Z,45.83
2017-11-08T04:18:35.830Z,41.03
2017-11-08T04:21:03.351Z,38.80
2017-11-08T04:23:30.902Z,34.33
2017-11-08T04:25:58.435Z,42.97
2017-11-08T04:28:25.990Z,39.20
2017-11-08T04:30:53.519Z,42.63
2017-11-08T04:33:21.849Z,45.23
2017-11-08T04:35:49.383Z,38.83
2017-11-08T04:38:16.932Z,35.77
2017-11-08T04:40:45.227Z,40.87
2017-11-08T04:43:12.771Z,40.57
2017-11-08T04:45:41.063Z,45.07
2017-11-08T04:48:08.611Z,39.20
2017-11-08T04:50:36.903Z,43.83
2017-11-08T04:53:04.451Z,37.00
2017-11-08T04:55:32.747Z,44.50
2017-11-08T04:58:00.296Z,40.53
2017-11-08T05:00:28.586Z,41.40
2017-11-08T05:02:56.140Z,38.80
2017-11-08T05:05:24.436Z,42.90
2017-11-08T05:07:51.988Z,39.83
2017-11-08T05:10:20.279Z,37.43
2017-11-08T05:12:47.826Z,39.40
2017-11-08T05:15:16.118Z,42.10
2017-11-08T05:17:43.667Z,38.80
2017-11-08T05:20:11.198Z,34.03
2017-11-08T05:22:38.755Z,30.63
2017-11-08T05:25:06.283Z,37.70
2017-11-08T05:27:33.833Z,36.13
2017-11-08T05:30:01.360Z,34.20
2017-11-08T05:32:29.682Z,34.33
2017-11-08T05:34:57.211Z,30.83
2017-11-08T05:37:25.524Z,37.90
2017-11-08T05:39:53.049Z,41.07
2017-11-08T05:42:21.369Z,37.10
2017-11-08T05:44:48.906Z,42.87
2017-11-08T05:47:17.215Z,38.43
2017-11-08T05:49:44.739Z,40.10
2017-11-08T05:52:13.039Z,48.67
2017-11-08T05:54:40.586Z,40.27
2017-11-08T05:57:08.886Z,44.40
2017-11-08T05:59:36.431Z,41.07
2017-11-08T06:02:04.720Z,29.53
2017-11-08T06:04:32.272Z,34.17
2017-11-08T06:07:00.567Z,40.10
2017-11-08T06:09:28.116Z,40.40
2017-11-08T06:11:56.413Z,37.87
2017-11-08T06:14:23.959Z,31.60
2017-11-08T06:16:52.257Z,42.93
2017-11-08T06:19:19.799Z,37.40
2017-11-08T06:21:48.090Z,35.67
2017-11-08T06:24:15.644Z,41.87
2017-11-08T06:26:43.171Z,36.13
2017-11-08T06:29:10.720Z,40.77
2017-11-08T06:31:38.254Z,44.73
2017-11-08T06:34:05.806Z,36.53
2017-11-08T06:36:34.190Z,37.80
2017-11-08T06:39:01.735Z,32.70
2017-11-08T06:41:29.264Z,44.47
2017-11-08T06:43:56.823Z,45.47
2017-11-08T06:46:24.359Z,35.23
2017-11-08T06:48:51.887Z,48.60
2017-11-08T06:51:19.440Z,45.60
2017-11-08T06:53:51.728Z,44.80
2017-11-08T06:56:19.282Z,42.63
2017-11-08T06:58:47.576Z,41.03
2017-11-08T07:01:15.130Z,42.10
2017-11-08T07:03:42.657Z,46.13
2017-11-08T07:06:13.027Z,46.23
2017-11-08T07:08:43.032Z,41.53
2017-11-08T07:11:11.356Z,49.33
2017-11-08T07:13:38.881Z,45.73
2017-11-08T07:16:07.348Z,42.23
2017-11-08T07:18:35.652Z,50.47
2017-11-08T07:21:03.218Z,47.80
2017-11-08T07:23:30.752Z,52.13
2017-11-08T07:25:59.055Z,52.60
2017-11-08T07:28:26.607Z,46.37
2017-11-08T07:30:54.900Z,45.07
2017-11-08T07:33:22.448Z,43.23
2017-11-08T07:35:50.739Z,50.00
2017-11-08T07:38:19.052Z,53.67
2017-11-08T07:40:46.579Z,45.00
2017-11-08T07:43:14.906Z,50.33
2017-11-08T07:45:42.434Z,53.90
2017-11-08T07:48:09.983Z,43.93
2017-11-08T07:50:38.276Z,50.57
2017-11-08T07:53:06.586Z,52.63
2017-11-08T07:55:39.728Z,55.17
2017-11-08T07:58:07.278Z,50.50
2017-11-08T08:00:34.802Z,46.50
2017-11-08T08:03:02.327Z,54.07
2017-11-08T08:05:30.639Z,52.37
2017-11-08T08:07:58.164Z,54.60
2017-11-08T08:10:26.485Z,50.87
2017-11-08T08:12:54.006Z,46.13
2017-11-08T08:15:21.550Z,48.87
2017-11-08T08:17:49.828Z,50.47
2017-11-08T08:20:17.450Z,50.10
2017-11-08T08:22:45.000Z,50.97
2017-11-08T08:25:12.558Z,53.63
2017-11-08T08:27:40.084Z,49.50
2017-11-08T08:30:07.630Z,46.10
2017-11-08T08:32:35.155Z,44.90
2017-11-08T08:35:02.695Z,50.90
2017-11-08T08:37:30.223Z,46.30
2017-11-08T08:39:57.783Z,50.63
2017-11-08T08:42:26.088Z,53.10
2017-11-08T08:44:53.623Z,55.60
2017-11-08T08:47:21.167Z,46.87
2017-11-08T08:49:48.705Z,50.23
2017-11-08T08:52:16.251Z,46.23
2017-11-08T08:54:43.782Z,46.70
2017-11-08T08:57:11.340Z,49.37
2017-11-08T08:59:39.635Z,46.27
2017-11-08T09:02:19.888Z,54.13
2017-11-08T09:04:47.419Z,46.47
2017-11-08T09:07:14.973Z,45.70
2017-11-08T09:09:42.512Z,44.00
2017-11-08T09:12:10.067Z,47.90
2017-11-08T09:14:37.606Z,53.87
2017-11-08T09:17:05.162Z,48.83
2017-11-08T09:19:32.689Z,49.17
2017-11-08T09:22:01.018Z,44.30
2017-11-08T09:24:31.497Z,52.00
2017-11-08T09:27:14.579Z,48.30
2017-11-08T09:29:42.108Z,56.87
2017-11-08T09:32:09.677Z,49.57
2017-11-08T09:34:51.899Z,51.63
2017-11-08T09:37:25.131Z,55.47
2017-11-08T09:39:53.427Z,53.63
2017-11-08T09:42:21.005Z,42.77
2017-11-08T09:44:48.547Z,54.23
2017-11-08T09:47:18.663Z,53.00
2017-11-08T09:49:46.219Z,52.60
2017-11-08T09:52:14.512Z,52.97
2017-11-08T09:54:42.063Z,56.47
2017-11-08T09:57:11.159Z,53.20
2017-11-08T09:59:42.500Z,53.20
2017-11-08T10:02:10.805Z,45.30
2017-11-08T10:04:38.378Z,47.53
2017-11-08T10:07:06.915Z,61.67
2017-11-08T10:09:37.265Z,55.63
2017-11-08T10:12:10.525Z,57.27
2017-11-08T10:14:38.101Z,50.23
2017-11-08T10:17:06.395Z,49.43
2017-11-08T10:19:33.939Z,58.23
2017-11-08T10:22:02.239Z,53.20
2017-11-08T10:24:29.796Z,50.47
2017-11-08T10:26:57.333Z,54.80
2017-11-08T10:29:25.684Z,55.27
2017-11-08T10:31:53.218Z,58.43
2017-11-08T10:34:20.745Z,52.73
2017-11-08T10:36:48.306Z,52.67
2017-11-08T10:39:15.874Z,51.47
2017-11-08T10:41:43.439Z,47.60
2017-11-08T10:44:10.932Z,52.23
2017-11-08T10:46:38.475Z,46.00
2017-11-08T10:49:06.010Z,53.77
2017-11-08T10:51:33.565Z,51.17
2017-11-08T10:54:01.093Z,55.93
2017-11-08T10:56:29.413Z,47.87
2017-11-08T10:59:00.922Z,53.63
2017-11-08T11:01:29.251Z,53.03
2017-11-08T11:03:56.780Z,45.50
2017-11-08T11:06:24.336Z,53.37
2017-11-08T11:08:51.877Z,51.93
2017-11-08T11:11:20.197Z,50.40
2017-11-08T11:13:47.745Z,49.03
2017-11-08T11:16:15.298Z,53.03
2017-11-08T11:18:43.592Z,48.53
2017-11-08T11:21:11.910Z,48.40
2017-11-08T11:23:48.872Z,54.23
2017-11-08T11:26:17.223Z,51.37
2017-11-08T11:28:44.763Z,53.40
2017-11-08T11:31:12.333Z,48.97
2017-11-08T11:33:39.871Z,53.83
2017-11-08T11:36:07.416Z,55.53
2017-11-08T11:38:36.754Z,52.93
2017-11-08T11:41:04.301Z,51.00
2017-11-08T11:43:31.851Z,57.30
2017-11-08T11:45:59.415Z,48.83
2017-11-08T11:48:33.472Z,50.70
2017-11-08T11:51:06.661Z,52.43
2017-11-08T11:53:34.187Z,51.67
2017-11-08T11:56:01.741Z,53.77
2017-11-08T11:58:29.282Z,63.73
2017-11-08T12:00:56.828Z,53.80
2017-11-08T12:03:24.356Z,57.10
2017-11-08T12:05:51.915Z,56.00
2017-11-08T12:08:19.447Z,56.60
2017-11-08T12:10:47.761Z,51.90
2017-11-08T12:13:15.320Z,53.53
2017-11-08T12:15:43.548Z,50.47
2017-11-08T12:18:11.766Z,51.40
2017-11-08T12:20:39.886Z,59.80
2017-11-08T12:23:08.308Z,48.17
2017-11-08T12:25:36.517Z,54.77
2017-11-08T12:28:05.341Z,50.50
2017-11-08T12:30:34.323Z,56.50
2017-11-08T12:33:02.061Z,53.67
2017-11-08T12:35:30.647Z,51.67
2017-11-08T12:37:58.211Z,57.17
2017-11-08T12:40:25.754Z,50.87
2017-11-08T12:42:53.317Z,56.70
2017-11-08T12:45:20.876Z,53.93
2017-11-08T12:47:48.450Z,53.23
2017-11-08T12:50:16.010Z,59.30
2017-11-08T12:52:43.584Z,47.27
2017-11-08T12:55:11.124Z,54.90
2017-11-08T12:57:38.675Z,50.63
2017-11-08T13:00:06.207Z,49.60
2017-11-08T13:02:34.532Z,52.30
2017-11-08T13:05:02.071Z,52.13
2017-11-08T13:07:29.611Z,53.03
2017-11-08T13:09:57.913Z,56.70
2017-11-08T13:12:25.468Z,57.27
2017-11-08T13:14:52.998Z,57.27
2017-11-08T13:17:20.553Z,47.17
2017-11-08T13:19:48.088Z,50.07
2017-11-08T13:22:15.648Z,52.00
2017-11-08T13:24:43.183Z,55.70
2017-11-08T13:27:10.737Z,52.07
2017-11-08T13:29:38.272Z,53.53
2017-11-08T13:32:05.847Z,58.87
2017-11-08T13:34:33.401Z,61.70
2017-11-08T13:37:01.734Z,57.27
2017-11-08T13:39:29.269Z,49.27
2017-11-08T13:41:56.830Z,46.10
2017-11-08T13:44:24.384Z,43.40
2017-11-08T13:46:51.940Z,51.30
2017-11-08T13:49:19.472Z,47.70
2017-11-08T13:51:47.025Z,49.53
2017-11-08T13:54:14.548Z,50.87
2017-11-08T13:56:42.093Z,47.23
2017-11-08T13:59:09.623Z,49.60
2017-11-08T14:01:37.940Z,57.97
2017-11-08T14:04:07.217Z,49.20
2017-11-08T14:06:34.767Z,47.77
2017-11-08T14:09:03.056Z,44.80
2017-11-08T14:11:30.584Z,49.90
2017-11-08T14:13:58.140Z,38.27
2017-11-08T14:16:25.673Z,45.63
2017-11-08T14:18:53.232Z,47.20
2017-11-08T14:21:20.755Z,44.60
2017-11-08T14:23:48.312Z,49.90
2017-11-08T14:26:19.197Z,43.90
2017-11-08T14:28:46.753Z,46.23
2017-11-08T14:31:14.279Z,54.13
2017-11-08T14:33:41.823Z,46.70
2017-11-08T14:36:10.108Z,47.70
2017-11-08T14:38:38.423Z,51.50
2017-11-08T14:41:05.950Z,48.10
2017-11-08T14:43:33.521Z,52.00
2017-11-08T14:46:01.813Z,40.07
2017-11-08T14:48:29.349Z,58.00
2017-11-08T14:50:56.907Z,50.70
2017-11-08T14:53:24.435Z,52.90
2017-11-08T14:55:51.987Z,49.33
2017-11-08T14:58:19.516Z,45.57
2017-11-08T15:00:47.094Z,48.90
2017-11-08T15:03:14.622Z,55.77
2017-11-08T15:05:42.172Z,50.67
2017-11-08T15:08:09.701Z,54.40
2017-11-08T15:10:37.252Z,40.83
2017-11-08T15:13:04.790Z,46.37
2017-11-08T15:15:32.344Z,34.20
2017-11-08T15:17:59.880Z,31.30
2017-11-08T15:20:29.363Z,33.67
2017-11-08T15:22:57.676Z,33.43
2017-11-08T15:25:25.214Z,31.87
2017-11-08T15:27:53.527Z,31.40
2017-11-08T15:30:26.787Z,28.97
2017-11-08T15:32:54.340Z,26.63
2017-11-08T15:35:23.517Z,47.03
2017-11-08T15:37:51.109Z,42.63
2017-11-08T15:40:20.653Z,45.93
2017-11-08T15:42:48.205Z,43.30
2017-11-08T15:45:15.761Z,42.37
2017-11-08T15:47:49.833Z,46.40
2017-11-08T15:50:17.384Z,55.10
2017-11-08T15:52:44.917Z,57.00
2017-11-08T15:55:12.467Z,52.17
2017-11-08T15:57:40.048Z,53.17
2017-11-08T16:00:07.595Z,51.07
2017-11-08T16:05:28.882Z,45.47
2017-11-08T16:07:57.201Z,47.13
2017-11-08T16:10:24.756Z,32.27
2017-11-08T16:15:42.036Z,30.50
2017-11-08T16:18:09.576Z,26.97
2017-11-08T16:20:37.132Z,34.80
2017-11-08T16:23:04.668Z,30.13
2017-11-08T16:25:32.192Z,22.50
2017-11-08T16:27:59.736Z,26.90
2017-11-08T16:30:27.268Z,26.43
2017-11-08T16:32:54.818Z,29.87
2017-11-08T16:35:22.348Z,29.90
2017-11-08T16:37:50.671Z,45.57
2017-11-08T16:40:18.200Z,41.00
2017-11-08T16:42:45.752Z,30.20
2017-11-08T16:45:13.288Z,32.93
2017-11-08T16:47:40.841Z,29.47
2017-11-08T16:50:08.392Z,33.50
2017-11-08T16:52:35.940Z,25.23
2017-11-08T16:55:03.470Z,42.17
2017-11-08T16:57:31.037Z,30.60
2017-11-08T16:59:58.564Z,32.30
2017-11-08T17:02:26.861Z,27.20
2017-11-08T17:04:54.414Z,27.07
2017-11-08T17:07:21.957Z,26.77
2017-11-08T17:09:50.282Z,27.47
2017-11-08T17:12:17.815Z,29.33
2017-11-08T17:14:45.368Z,22.93
2017-11-08T17:17:13.672Z,28.07
2017-11-08T17:19:41.220Z,28.70
2017-11-08T17:22:08.749Z,36.73
2017-11-08T17:24:36.331Z,30.57
2017-11-08T17:27:03.869Z,25.83
2017-11-08T17:29:31.400Z,26.50
2017-11-08T17:31:59.024Z,29.63
2017-11-08T17:34:26.573Z,25.87
2017-11-08T17:36:54.889Z,24.57
2017-11-08T17:39:22.433Z,25.80
2017-11-08T17:41:49.995Z,27.20
2017-11-08T17:44:17.540Z,44.23
2017-11-08T17:46:45.861Z,38.23
2017-11-08T17:49:13.393Z,35.47
2017-11-08T17:51:41.709Z,33.50
2017-11-08T17:54:09.240Z,27.80
2017-11-08T17:56:36.794Z,30.03
2017-11-08T17:59:07.124Z,25.50
2017-11-08T18:01:34.669Z,30.50
2017-11-08T18:04:03.725Z,27.43
2017-11-08T18:06:31.264Z,24.27
2017-11-08T18:08:58.827Z,26.23
2017-11-08T18:11:26.366Z,34.03
2017-11-08T18:13:53.925Z,32.33
2017-11-08T18:16:21.457Z,30.53
2017-11-08T18:18:49.021Z,35.53
2017-11-08T18:21:16.581Z,33.80
2017-11-08T18:23:44.158Z,35.20
2017-11-08T18:26:12.461Z,26.10
2017-11-08T18:28:40.000Z,33.60
2017-11-08T18:31:08.377Z,30.10
2017-11-08T18:33:36.693Z,29.90
2017-11-08T18:36:04.256Z,22.40
2017-11-08T18:38:31.795Z,27.03
2017-11-08T18:41:00.117Z,25.47
2017-11-08T18:43:27.656Z,31.00
2017-11-08T18:45:55.199Z,25.90
2017-11-08T18:48:23.544Z,23.93
2017-11-08T18:50:51.113Z,21.00
2017-11-08T18:53:18.699Z,22.40
2017-11-08T18:55:47.004Z,23.47
2017-11-08T18:58:14.554Z,23.40
2017-11-08T19:00:42.857Z,22.73
2017-11-08T19:03:10.423Z,23.53
2017-11-08T19:05:37.968Z,25.60
2017-11-08T19:08:06.324Z,22.97
2017-11-08T19:10:33.861Z,27.23
2017-11-08T19:13:01.415Z,22.13
2017-11-08T19:15:28.944Z,32.13
2017-11-08T19:17:57.261Z,28.30
2017-11-08T19:20:24.795Z,28.60
2017-11-08T19:22:52.331Z,29.00
2017-11-08T19:25:19.884Z,22.13
2017-11-08T19:27:47.412Z,24.40
2017-11-08T19:30:14.960Z,24.63
2017-11-08T19:32:42.503Z,27.07
2017-11-08T19:35:10.819Z,20.63
2017-11-08T19:37:38.383Z,34.73
2017-11-08T19:40:05.932Z,25.80
2017-11-08T19:42:33.496Z,27.87
2017-11-08T19:45:01.067Z,21.67
2017-11-08T19:47:28.601Z,28.60
2017-11-08T19:49:56.141Z,26.13
2017-11-08T19:52:23.694Z,23.60
2017-11-08T19:54:51.229Z,22.97
2017-11-08T19:57:18.800Z,25.13
2017-11-08T19:59:46.328Z,27.07
2017-11-08T20:02:13.878Z,20.17
2017-11-08T20:04:42.181Z,20.60
2017-11-08T20:07:09.734Z,23.43
2017-11-08T20:09:37.272Z,22.60
2017-11-08T20:12:05.593Z,25.90
2017-11-08T20:14:33.130Z,23.57
2017-11-08T20:17:01.460Z,25.43
2017-11-08T20:19:28.988Z,27.90
2017-11-08T20:21:56.521Z,28.30
2017-11-08T20:24:24.848Z,26.70
2017-11-08T20:26:52.381Z,29.47
2017-11-08T20:29:19.940Z,25.80
2017-11-08T20:31:48.231Z,23.10
2017-11-08T20:34:15.786Z,23.90
2017-11-08T20:36:43.332Z,23.13
2017-11-08T20:39:11.649Z,30.50
2017-11-08T20:41:39.183Z,23.00
2017-11-08T20:44:07.505Z,22.10
2017-11-08T20:46:35.041Z,28.27
2017-11-08T20:49:02.609Z,24.57
2017-11-08T20:51:30.142Z,21.33
2017-11-08T20:53:57.673Z,22.50
2017-11-08T20:56:25.232Z,19.20
2017-11-08T20:58:52.780Z,21.10
2017-11-08T21:01:21.178Z,21.90
2017-11-08T21:03:48.715Z,19.57
2017-11-08T21:06:16.267Z,28.73
2017-11-08T21:08:43.796Z,21.37
2017-11-08T21:11:11.343Z,29.00
2017-11-08T21:13:38.873Z,21.30
2017-11-08T21:16:06.429Z,26.17
2017-11-08T21:18:33.960Z,25.20
2017-11-08T21:21:02.288Z,21.33
2017-11-08T21:23:29.816Z,22.00
2017-11-08T21:25:57.344Z,22.83
2017-11-08T21:28:24.891Z,21.47
2017-11-08T21:30:52.433Z,22.60
2017-11-08T21:33:19.988Z,21.27
2017-11-08T21:35:47.570Z,23.93
2017-11-08T21:38:15.140Z,25.60
2017-11-08T21:40:42.677Z,26.70
2017-11-08T21:43:10.230Z,27.27
2017-11-08T21:45:37.770Z,24.90
2017-11-08T21:48:05.327Z,28.70
2017-11-08T21:50:32.855Z,31.67
2017-11-08T21:53:00.404Z,23.77
2017-11-08T21:55:27.972Z,28.50
2017-11-08T21:57:55.489Z,27.93
2017-11-08T22:00:23.044Z,27.90
2017-11-08T22:02:50.583Z,31.70
2017-11-08T22:05:18.901Z,27.90
2017-11-08T22:07:46.433Z,26.70
2017-11-08T22:10:13.985Z,26.37
2017-11-08T22:12:41.534Z,21.80
2017-11-08T22:15:09.861Z,22.07
2017-11-08T22:17:37.411Z,22.50
2017-11-08T22:20:04.969Z,39.70
2017-11-08T22:22:32.496Z,29.63
2017-11-08T22:25:00.044Z,29.70
2017-11-08T22:27:27.571Z,25.83
2017-11-08T22:29:55.108Z,23.77
2017-11-08T22:32:22.661Z,24.93
2017-11-08T22:34:50.959Z,22.20
2017-11-08T22:37:19.150Z,22.63
2017-11-08T22:39:46.684Z,23.00
2017-11-08T22:42:14.237Z,21.33
2017-11-08T22:44:42.544Z,21.90
2017-11-08T22:47:10.092Z,21.00
2017-11-08T22:49:37.625Z,22.70
2017-11-08T22:52:05.208Z,24.37
2017-11-08T22:54:32.744Z,18.37
2017-11-08T22:57:02.624Z,33.07
2017-11-08T22:59:30.952Z,23.00
2017-11-08T23:01:59.252Z,20.73
2017-11-08T23:04:26.801Z,19.80
2017-11-08T23:06:55.100Z,20.63
2017-11-08T23:09:22.653Z,24.90
2017-11-08T23:11:50.961Z,21.67
2017-11-08T23:14:18.512Z,24.90
2017-11-08T23:16:46.040Z,27.17
2017-11-08T23:19:13.595Z,20.17
2017-11-08T23:21:41.128Z,20.80
2017-11-08T23:24:08.652Z,20.03
2017-11-08T23:26:36.209Z,19.50
2017-11-08T23:29:03.742Z,21.50
2017-11-08T23:31:31.287Z,22.03
2017-11-08T23:33:59.584Z,25.60
2017-11-08T23:36:27.127Z,23.73
2017-11-08T23:38:54.655Z,27.80
2017-11-08T23:41:22.214Z,25.13
2017-11-08T23:43:49.813Z,21.00
2017-11-08T23:46:17.363Z,20.57
2017-11-08T23:48:44.891Z,18.77
2017-11-08T23:51:16.135Z,18.23
2017-11-08T23:53:44.622Z,17.10
2017-11-08T23:56:12.185Z,17.17
2017-11-08T23:58:39.711Z,18.27
